CheckWX is a tool to help pilots better visualize weather data.  It is not intended as a substitute for an official pre-flight weather briefing.

04:44:16 UTC

CYXT METAR
Terrace Airport
Terrace, Canada
Current

44 mins ago

CYXT 250400Z VRB02KT 20SM VCSH SCT030 BKN060 BKN220 05/M00 A3039 RMK CU3CU3CI1 SH SW SLP303
Observed
Apr-25 @ 04:00 UTC
Wind
  • Variable at 2 KTS
Visibility
20 SM
Flight Rules
VFR
Cloud Levels
  • Scattered at 3,000' AGL
  • Broken at 6,000' AGL
  • Broken at 22,000' AGL
Temperature
C / 41°F
Dewpoint
C / 32°F
Humidity
70%
Altimeter
30.39" Hg
Pressure
1029.12 hPa
Previous

59 mins ago

CYXT 250345Z 24003KT 210V280 20SM BKN034 BKN060 BKN220 05/M00 A3039 RMK CU5CU1CI1 SLP302
Observed
Apr-25 @ 03:45 UTC
Wind
  • 240° at 3 KTS
Visibility
20 SM
Flight Rules
VFR
Cloud Levels
  • Broken at 3,400' AGL
  • Broken at 6,000' AGL
  • Broken at 22,000' AGL
Temperature
C / 41°F
Dewpoint
C / 32°F
Humidity
70%
Altimeter
30.39" Hg
Pressure
1029.12 hPa
Previous

2 hours ago

CYXT 250300Z 21007KT 20SM SCT033 BKN060 BKN220 06/01 A3039 RMK CU4CU2CI1 SLP301
Observed
Apr-25 @ 03:00 UTC
Wind
  • 210° at 7 KTS
Visibility
20 SM
Flight Rules
VFR
Cloud Levels
  • Scattered at 3,300' AGL
  • Broken at 6,000' AGL
  • Broken at 22,000' AGL
Temperature
C / 43°F
Dewpoint
C / 34°F
Humidity
71%
Altimeter
30.39" Hg
Pressure
1029.12 hPa